createdAt,value
2023-05-12T00:04:54.548Z,75779.81
2023-05-12T00:12:29.680Z,75792.06
2023-05-12T00:20:03.639Z,75804.31
2023-05-12T00:27:38.658Z,75814.53
2023-05-12T00:35:12.144Z,75832.88
2023-05-12T00:42:47.218Z,75845.13
2023-05-12T00:50:21.942Z,75855.34
2023-05-12T00:57:57.123Z,75861.47
2023-05-12T01:05:31.774Z,75869.63
2023-05-12T01:13:06.939Z,75892.06
2023-05-12T01:20:43.822Z,75904.31
2023-05-12T01:28:19.575Z,75908.41
2023-05-12T01:35:53.290Z,75928.81
2023-05-12T01:43:28.452Z,75934.94
2023-05-12T01:51:02.261Z,75959.41
2023-05-12T01:58:37.494Z,75967.59
2023-05-12T02:06:12.466Z,75979.81
2023-05-12T02:13:47.696Z,76000.22
2023-05-12T02:21:21.424Z,76006.34
2023-05-12T02:28:56.577Z,76020.66
2023-05-12T02:36:30.309Z,76026.78
2023-05-12T02:44:05.774Z,76034.94
2023-05-12T02:51:39.685Z,76034.94
2023-05-12T02:59:15.014Z,76065.53
2023-05-12T03:06:49.607Z,76059.41
2023-05-12T03:14:26.392Z,76083.91
2023-05-12T03:22:00.289Z,76096.16
2023-05-12T03:29:35.624Z,76114.53
2023-05-12T03:37:09.774Z,76132.91
2023-05-12T03:44:45.150Z,76151.25
2023-05-12T03:52:19.160Z,76167.59
2023-05-12T03:59:54.590Z,76181.88
2023-05-12T04:07:28.603Z,76198.22
2023-05-12T04:15:04.095Z,76204.31
2023-05-12T04:30:30.582Z,76212.50
2023-05-12T04:45:58.617Z,76251.28
2023-05-12T04:53:34.815Z,76265.56
2023-05-12T05:01:12.836Z,76265.56
2023-05-12T05:08:56.436Z,76283.94
2023-05-12T05:16:31.849Z,76283.94
2023-05-12T05:24:07.847Z,76281.88
2023-05-12T05:31:44.479Z,76255.34
2023-05-12T05:39:18.272Z,76241.06
2023-05-12T05:46:53.567Z,76194.13
2023-05-12T05:54:27.326Z,76159.44
2023-05-12T06:02:02.599Z,76112.50
2023-05-12T06:09:36.447Z,76063.50
2023-05-12T06:17:11.968Z,76022.69
2023-05-12T06:24:45.760Z,76028.81
2023-05-12T06:32:21.072Z,75961.47
2023-05-12T06:39:55.346Z,75922.69
2023-05-12T06:47:30.718Z,75879.81
2023-05-12T06:55:05.822Z,75824.72
2023-05-12T07:02:40.832Z,75792.06
2023-05-12T07:10:15.118Z,75777.78
2023-05-12T07:17:50.430Z,75728.81
2023-05-12T07:25:24.607Z,75665.53
2023-05-12T07:40:52.682Z,75596.16
2023-05-12T07:48:28.075Z,75508.41
2023-05-12T07:56:02.210Z,75449.25
2023-05-12T08:03:37.781Z,75410.47
2023-05-12T08:11:12.857Z,75334.97
2023-05-12T08:18:47.888Z,75330.88
2023-05-12T08:26:22.534Z,75269.69
2023-05-12T08:41:56.157Z,75175.81
2023-05-12T08:49:33.378Z,75159.50
2023-05-12T08:57:09.449Z,75110.53
2023-05-12T09:12:39.042Z,75098.28
2023-05-12T09:20:27.891Z,75043.19
2023-05-12T09:29:51.800Z,75075.84
2023-05-12T09:36:58.749Z,75047.28
2023-05-12T09:44:34.762Z,75026.88
2023-05-12T09:52:53.783Z,75069.72
2023-05-12T10:09:42.244Z,75094.19
2023-05-12T10:18:15.445Z,75057.47
2023-05-12T10:26:08.387Z,75053.41
2023-05-12T10:33:42.105Z,75094.19
2023-05-12T10:41:17.889Z,75090.13
2023-05-12T10:57:59.616Z,75171.72
2023-05-12T11:14:22.162Z,75190.09
2023-05-12T11:21:57.564Z,75110.53
2023-05-12T11:29:50.792Z,75116.66
2023-05-12T11:38:33.622Z,75141.13
2023-05-12T11:46:09.863Z,75171.72
2023-05-12T11:54:01.778Z,75110.53
2023-05-12T12:37:23.980Z,75053.41
2023-05-12T13:12:00.094Z,75026.88
2023-05-12T13:19:43.374Z,75022.78
2023-05-12T13:27:18.564Z,75006.47
2023-05-12T13:34:52.336Z,75028.91
2023-05-12T13:42:27.650Z,75053.41
2023-05-12T13:50:01.536Z,75004.44
2023-05-12T13:57:36.652Z,74973.81
2023-05-12T14:05:10.877Z,74935.06
2023-05-12T14:12:46.666Z,74986.06
2023-05-12T14:20:20.566Z,74914.66
2023-05-12T14:27:56.199Z,75004.44
2023-05-12T14:35:30.134Z,74998.31
2023-05-12T14:43:05.549Z,74998.31
2023-05-12T14:50:39.367Z,74981.97
2023-05-12T14:58:14.638Z,74961.59
2023-05-12T15:06:04.556Z,74882.00
2023-05-12T15:13:41.286Z,74930.97
2023-05-12T15:21:15.481Z,74975.88
2023-05-12T15:37:43.653Z,74933.03
2023-05-12T15:45:17.741Z,74990.16
2023-05-12T15:52:52.877Z,74981.97
2023-05-12T16:00:26.796Z,74988.09
2023-05-12T16:08:02.042Z,74926.91
2023-05-12T16:15:36.450Z,74877.94
2023-05-12T16:23:11.753Z,74967.69
2023-05-12T16:30:46.070Z,74951.38
2023-05-12T16:38:21.450Z,74947.28
2023-05-12T16:46:01.267Z,74947.28
2023-05-12T16:53:36.948Z,74994.22
2023-05-12T17:01:10.916Z,75039.09
2023-05-12T17:08:46.371Z,75065.63
2023-05-12T17:16:20.498Z,75067.69
2023-05-12T17:23:55.660Z,75116.66
2023-05-12T17:31:29.466Z,75130.94
2023-05-12T17:39:05.980Z,75145.22
2023-05-12T17:46:39.897Z,75175.81
2023-05-12T17:54:15.427Z,75216.63
2023-05-12T18:01:49.138Z,75245.19
2023-05-12T18:09:24.797Z,75273.75
2023-05-12T18:16:58.834Z,75310.47
2023-05-12T18:24:34.195Z,75332.94
2023-05-12T18:32:08.089Z,75347.22
2023-05-12T18:39:43.572Z,75373.75
2023-05-12T18:47:17.435Z,75404.34
2023-05-12T19:03:45.607Z,75457.41
2023-05-12T19:11:20.286Z,75488.00
2023-05-12T19:18:55.635Z,75510.47
2023-05-12T19:26:29.650Z,75532.91
2023-05-12T19:34:05.353Z,75555.34
2023-05-12T19:41:41.005Z,75571.69
2023-05-12T19:49:20.198Z,75592.09
2023-05-12T19:57:01.729Z,75612.50
2023-05-12T20:05:11.586Z,75626.78
2023-05-12T20:12:55.570Z,75649.22
2023-05-12T20:20:32.212Z,75667.59
2023-05-12T20:28:15.238Z,75677.78
2023-05-12T20:36:14.956Z,75692.06
2023-05-12T20:43:52.144Z,75710.44
2023-05-12T20:51:27.756Z,75724.72
2023-05-12T20:59:01.531Z,75749.22
2023-05-12T21:06:37.736Z,75763.50
2023-05-12T21:14:11.528Z,75773.72
2023-05-12T21:21:48.220Z,75792.06
2023-05-12T21:29:22.241Z,75814.53
2023-05-12T21:36:57.624Z,75824.72
2023-05-12T21:44:31.649Z,75834.94
2023-05-12T21:52:17.490Z,75847.16
2023-05-12T22:00:03.131Z,75865.53
2023-05-12T22:07:59.218Z,75871.66
2023-05-12T22:15:42.923Z,75892.06
2023-05-12T22:23:26.811Z,75908.41
2023-05-12T22:31:07.248Z,75918.59
2023-05-12T22:38:49.926Z,75932.88
2023-05-12T22:46:27.347Z,75947.16
2023-05-12T22:54:14.904Z,75957.38
2023-05-12T23:01:57.523Z,75971.66
2023-05-12T23:09:40.694Z,75983.91
2023-05-12T23:17:14.437Z,75998.19
2023-05-12T23:24:49.741Z,76010.44
2023-05-12T23:32:23.721Z,76028.81
2023-05-12T23:39:58.936Z,76049.22
2023-05-12T23:47:32.568Z,76067.59
2023-05-12T23:55:08.962Z,76083.91
